Holly Ann — WDE9094 — position and weather

sailwx.info

Track history (hours):
 
Tides and Currents Weather Stations Pressure Air Temp Water Temp Dewpoint Dewpoint Depression Visibility Wind Speed Wind Dir Waves Ship Positions

Holly Ann

Owner: Manke Tug and Barge Co., Inc., Shelton, WA. More information available from US FCC via Universal Licensing System and Coast Guard Vessel Documentation Center.

Last reported at 2015-May-23 02:33 UTC. Time now 2015-May-27 01:51 UTC.
Position N 47°16' W 122°33'.

; draft 4.5 m.

Type: Towing. MMSI: 367413350.

Date/timePositionNaut miles runAvg speedWind from/ knotsBaromVisibWave heightAir tempDewpointWater temp
2015-May-23 02:33N 47°16' W 122°33'9 8.8
2015-May-23 01:33N 47°24' W 122°32'2 7.3
2015-May-23 01:14N 47°27' W 122°31'5 7.6
2015-May-23 00:33N 47°32' W 122°29'1 8.0
2015-May-23 00:29N 47°32' W 122°28'7 7.8
2015-May-22 23:33N 47°39' W 122°28'1 7.4
2015-May-22 23:29N 47°40' W 122°28'3 2.9
2015-May-22 22:33N 47°41' W 122°25'0 0.0
2015-May-22 22:29N 47°41' W 122°25'0 0.0
2015-May-22 21:33N 47°41' W 122°25'0 0.0
2015-May-22 21:29N 47°41' W 122°25'0 0.0
2015-May-22 20:34N 47°41' W 122°25'0 0.0
2015-May-22 20:33N 47°41' W 122°25'0 0.0
2015-May-22 19:33N 47°41' W 122°25'0 0.0
2015-May-22 19:33N 47°41' W 122°25'0 0.0
2015-May-22 18:33N 47°41' W 122°25'0 0.0
2015-May-22 18:33N 47°41' W 122°25'0 0.0
2015-May-22 17:33N 47°41' W 122°25'0 0.1
2015-May-22 17:27N 47°41' W 122°25'4 4.2
2015-May-22 16:33N 47°45' W 122°25'0 7.1
2015-May-22 16:31N 47°45' W 122°25'7 7.3
2015-May-22 15:33N 47°52' W 122°23'8 7.8
2015-May-22 14:33N 47°58' W 122°16'3 5.9
2015-May-22 13:58N 48°01' W 122°13'1 1.7
2015-May-22 13:23N 48°01' W 122°11'0 0.0
2015-May-22 12:33N 48°01' W 122°11'0 0.0
2015-May-22 11:22N 48°01' W 122°11'0 0.0
2015-May-22 09:25N 48°01' W 122°11'0 0.0
2015-May-22 08:20N 48°01' W 122°11'0 0.0
2015-May-22 08:15N 48°01' W 122°11'0 0.0
2015-May-22 07:32N 48°01' W 122°11'0 0.0
2015-May-22 06:33N 48°01' W 122°11'0 0.0
2015-May-22 05:33N 48°01' W 122°11'0 0.0
2015-May-22 04:33N 48°01' W 122°11'3 2.5
2015-May-22 03:33N 47°59' W 122°14'3 3.3
2015-May-22 02:33N 47°58' W 122°18'0 2.9
2015-May-22 02:32N 47°58' W 122°18'3 3.0
2015-May-22 01:33N 47°55' W 122°21'4 4.2
2015-May-22 00:33N 47°51' W 122°23'1 4.2
2015-May-22 00:22N 47°51' W 122°23'3 3.7
2015-May-21 23:33N 47°48' W 122°25'0 3.2
2015-May-21 23:32N 47°48' W 122°25'4 4.3
2015-May-21 22:33N 47°44' W 122°26'0 4.5
2015-May-21 22:30N 47°43' W 122°26'4 4.7
2015-May-21 21:33N 47°39' W 122°27'0 4.8
2015-May-21 21:30N 47°39' W 122°27'5 5.7
2015-May-21 20:33N 47°33' W 122°28'1 5.4
2015-May-21 20:25N 47°33' W 122°28'7 7.5
2015-May-21 19:33N 47°26' W 122°31'9 8.5
2015-May-21 18:31N 47°18' W 122°33'8 7.8
2015-May-21 17:31N 47°11' W 122°39'6 5.8
2015-May-21 16:30N 47°10' W 122°47'10 0.2
2015-May-19 23:33N 47°15' W 122°34'10 9.7
2015-May-19 22:33N 47°24' W 122°32'4 8.0
2015-May-19 22:06N 47°28' W 122°31'4 8.1
2015-May-19 21:33N 47°32' W 122°28'6 5.2
2015-May-19 20:29N 47°33' W 122°21'2 0.9
2015-May-19 18:21N 47°35' W 122°21'0 0.0
2015-May-19 17:23N 47°35' W 122°21'2 1.0
2015-May-19 15:23N 47°33' W 122°21'0 0.0
2015-May-19 14:32N 47°33' W 122°21'0 0.0
2015-May-19 11:45N 47°33' W 122°21'0 0.0
2015-May-19 11:33N 47°33' W 122°21'0 0.0
2015-May-19 11:30N 47°33' W 122°21'0 0.0
2015-May-19 10:33N 47°33' W 122°21'0 0.0
2015-May-19 10:30N 47°33' W 122°21'0 0.0
2015-May-19 09:33N 47°33' W 122°21'0 0.0
2015-May-19 09:30N 47°33' W 122°21'3 3.0
2015-May-19 08:33N 47°36' W 122°22'0 6.7
2015-May-19 08:30N 47°36' W 122°23'7 7.0
2015-May-19 07:33N 47°31' W 122°29'1 8.0
2015-May-19 07:29N 47°30' W 122°29'7 7.9
2015-May-19 06:33N 47°23' W 122°32'9 9.0
2015-May-19 05:33N 47°14' W 122°34'10 7.1
2015-May-19 04:14N 47°10' W 122°47'6 5.7
2015-May-19 03:07N 47°12' W 122°56'  
2015-May-14 22:29N 47°13' W 122°37'8 8.6
2015-May-14 21:33N 47°20' W 122°33'8 8.5
2015-May-14 20:33N 47°29' W 122°30'4 9.0
2015-May-14 20:08N 47°32' W 122°28'5 8.7
2015-May-14 19:33N 47°36' W 122°23'0 0.0
2015-May-14 19:33N 47°36' W 122°23'2 2.2
2015-May-14 18:33N 47°34' W 122°21'0 0.0
2015-May-14 18:32N 47°34' W 122°21'0 0.0
2015-May-14 17:33N 47°34' W 122°21'0 0.0
2015-May-14 17:32N 47°34' W 122°21'0 0.0
2015-May-14 16:33N 47°34' W 122°21'0 0.0
2015-May-14 16:32N 47°34' W 122°21'0 0.0
2015-May-14 15:33N 47°34' W 122°21'0 0.0
2015-May-14 15:31N 47°34' W 122°21'0 0.0
2015-May-14 14:33N 47°34' W 122°21'0 0.0
2015-May-14 14:31N 47°34' W 122°21'0 0.0
2015-May-14 13:33N 47°34' W 122°21'0 0.1
2015-May-14 13:31N 47°34' W 122°21'0 0.0
2015-May-14 12:33N 47°34' W 122°21'0 0.0
2015-May-14 12:30N 47°34' W 122°21'0 0.0
2015-May-14 11:33N 47°34' W 122°21'0 0.0
2015-May-14 11:30N 47°34' W 122°21'0 0.0
2015-May-14 10:33N 47°34' W 122°21'0 0.0
2015-May-14 10:30N 47°34' W 122°21'0 0.0
2015-May-14 09:33N 47°34' W 122°21'0 0.0
2015-May-14 09:30N 47°34' W 122°21'0 0.0
2015-May-14 08:33N 47°34' W 122°21'0 0.0
2015-May-14 08:30N 47°34' W 122°21'0 0.0
2015-May-14 07:33N 47°34' W 122°21'0 0.0
2015-May-14 07:29N 47°34' W 122°21'0 0.0
2015-May-14 06:33N 47°34' W 122°21'0 0.0
2015-May-14 06:29N 47°34' W 122°21'0 0.0
2015-May-14 06:14N 47°34' W 122°21'0 0.0
2015-May-14 05:33N 47°34' W 122°21'1 0.9
2015-May-14 04:34N 47°35' W 122°22'0 4.3
2015-May-14 04:33N 47°35' W 122°22'3 3.4
2015-May-14 03:34N 47°34' W 122°26'0 4.3
2015-May-14 03:33N 47°34' W 122°26'5 4.8
2015-May-14 02:33N 47°30' W 122°30'6 6.1
2015-May-14 01:33N 47°24' W 122°32'9 8.3
2015-May-14 00:30N 47°15' W 122°34'15 0.8
2015-May-13 06:22N 47°12' W 122°56'6 6.8
2015-May-13 05:28N 47°10' W 122°47'7 7.9
2015-May-13 04:33N 47°13' W 122°37'10 9.7
2015-May-13 03:33N 47°22' W 122°32'  
Track history (hours):
 
Tides and Currents Weather Stations Pressure Air Temp Water Temp Dewpoint Dewpoint Depression Visibility Wind Speed Wind Dir Waves Ship Positions

Holly Ann

Owner: Manke Tug and Barge Co., Inc., Shelton, WA. More information available from US FCC via Universal Licensing System and Coast Guard Vessel Documentation Center.

Last reported at 2015-May-23 02:33 UTC. Time now 2015-May-27 01:51 UTC.
Position N 47°16' W 122°33'.

; draft 4.5 m.

Type: Towing. MMSI: 367413350.

Date/timePositionNaut miles runAvg speedWind from/ knotsBaromVisibWave heightAir tempDewpointWater temp
2015-May-23 02:33N 47°16' W 122°33'9 8.8
2015-May-23 01:33N 47°24' W 122°32'2 7.3
2015-May-23 01:14N 47°27' W 122°31'5 7.6
2015-May-23 00:33N 47°32' W 122°29'1 8.0
2015-May-23 00:29N 47°32' W 122°28'7 7.8
2015-May-22 23:33N 47°39' W 122°28'1 7.4
2015-May-22 23:29N 47°40' W 122°28'3 2.9
2015-May-22 22:33N 47°41' W 122°25'0 0.0
2015-May-22 22:29N 47°41' W 122°25'0 0.0
2015-May-22 21:33N 47°41' W 122°25'0 0.0
2015-May-22 21:29N 47°41' W 122°25'0 0.0
2015-May-22 20:34N 47°41' W 122°25'0 0.0
2015-May-22 20:33N 47°41' W 122°25'0 0.0
2015-May-22 19:33N 47°41' W 122°25'0 0.0
2015-May-22 19:33N 47°41' W 122°25'0 0.0
2015-May-22 18:33N 47°41' W 122°25'0 0.0
2015-May-22 18:33N 47°41' W 122°25'0 0.0
2015-May-22 17:33N 47°41' W 122°25'0 0.1
2015-May-22 17:27N 47°41' W 122°25'4 4.2
2015-May-22 16:33N 47°45' W 122°25'0 7.1
2015-May-22 16:31N 47°45' W 122°25'7 7.3
2015-May-22 15:33N 47°52' W 122°23'8 7.8
2015-May-22 14:33N 47°58' W 122°16'3 5.9
2015-May-22 13:58N 48°01' W 122°13'1 1.7
2015-May-22 13:23N 48°01' W 122°11'0 0.0
2015-May-22 12:33N 48°01' W 122°11'0 0.0
2015-May-22 11:22N 48°01' W 122°11'0 0.0
2015-May-22 09:25N 48°01' W 122°11'0 0.0
2015-May-22 08:20N 48°01' W 122°11'0 0.0
2015-May-22 08:15N 48°01' W 122°11'0 0.0
2015-May-22 07:32N 48°01' W 122°11'0 0.0
2015-May-22 06:33N 48°01' W 122°11'0 0.0
2015-May-22 05:33N 48°01' W 122°11'0 0.0
2015-May-22 04:33N 48°01' W 122°11'3 2.5
2015-May-22 03:33N 47°59' W 122°14'3 3.3
2015-May-22 02:33N 47°58' W 122°18'0 2.9
2015-May-22 02:32N 47°58' W 122°18'3 3.0
2015-May-22 01:33N 47°55' W 122°21'4 4.2
2015-May-22 00:33N 47°51' W 122°23'1 4.2
2015-May-22 00:22N 47°51' W 122°23'3 3.7
2015-May-21 23:33N 47°48' W 122°25'0 3.2
2015-May-21 23:32N 47°48' W 122°25'4 4.3
2015-May-21 22:33N 47°44' W 122°26'0 4.5
2015-May-21 22:30N 47°43' W 122°26'4 4.7
2015-May-21 21:33N 47°39' W 122°27'0 4.8
2015-May-21 21:30N 47°39' W 122°27'5 5.7
2015-May-21 20:33N 47°33' W 122°28'1 5.4
2015-May-21 20:25N 47°33' W 122°28'7 7.5
2015-May-21 19:33N 47°26' W 122°31'9 8.5
2015-May-21 18:31N 47°18' W 122°33'8 7.8
2015-May-21 17:31N 47°11' W 122°39'6 5.8
2015-May-21 16:30N 47°10' W 122°47'10 0.2
2015-May-19 23:33N 47°15' W 122°34'10 9.7
2015-May-19 22:33N 47°24' W 122°32'4 8.0
2015-May-19 22:06N 47°28' W 122°31'4 8.1
2015-May-19 21:33N 47°32' W 122°28'6 5.2
2015-May-19 20:29N 47°33' W 122°21'2 0.9
2015-May-19 18:21N 47°35' W 122°21'0 0.0
2015-May-19 17:23N 47°35' W 122°21'2 1.0
2015-May-19 15:23N 47°33' W 122°21'0 0.0
2015-May-19 14:32N 47°33' W 122°21'0 0.0
2015-May-19 11:45N 47°33' W 122°21'0 0.0
2015-May-19 11:33N 47°33' W 122°21'0 0.0
2015-May-19 11:30N 47°33' W 122°21'0 0.0
2015-May-19 10:33N 47°33' W 122°21'0 0.0
2015-May-19 10:30N 47°33' W 122°21'0 0.0
2015-May-19 09:33N 47°33' W 122°21'0 0.0
2015-May-19 09:30N 47°33' W 122°21'3 3.0
2015-May-19 08:33N 47°36' W 122°22'0 6.7
2015-May-19 08:30N 47°36' W 122°23'7 7.0
2015-May-19 07:33N 47°31' W 122°29'1 8.0
2015-May-19 07:29N 47°30' W 122°29'7 7.9
2015-May-19 06:33N 47°23' W 122°32'9 9.0
2015-May-19 05:33N 47°14' W 122°34'10 7.1
2015-May-19 04:14N 47°10' W 122°47'6 5.7
2015-May-19 03:07N 47°12' W 122°56'  
2015-May-14 22:29N 47°13' W 122°37'8 8.6
2015-May-14 21:33N 47°20' W 122°33'8 8.5
2015-May-14 20:33N 47°29' W 122°30'4 9.0
2015-May-14 20:08N 47°32' W 122°28'5 8.7
2015-May-14 19:33N 47°36' W 122°23'0 0.0
2015-May-14 19:33N 47°36' W 122°23'2 2.2
2015-May-14 18:33N 47°34' W 122°21'0 0.0
2015-May-14 18:32N 47°34' W 122°21'0 0.0
2015-May-14 17:33N 47°34' W 122°21'0 0.0
2015-May-14 17:32N 47°34' W 122°21'0 0.0
2015-May-14 16:33N 47°34' W 122°21'0 0.0
2015-May-14 16:32N 47°34' W 122°21'0 0.0
2015-May-14 15:33N 47°34' W 122°21'0 0.0
2015-May-14 15:31N 47°34' W 122°21'0 0.0
2015-May-14 14:33N 47°34' W 122°21'0 0.0
2015-May-14 14:31N 47°34' W 122°21'0 0.0
2015-May-14 13:33N 47°34' W 122°21'0 0.1
2015-May-14 13:31N 47°34' W 122°21'0 0.0
2015-May-14 12:33N 47°34' W 122°21'0 0.0
2015-May-14 12:30N 47°34' W 122°21'0 0.0
2015-May-14 11:33N 47°34' W 122°21'0 0.0
2015-May-14 11:30N 47°34' W 122°21'0 0.0
2015-May-14 10:33N 47°34' W 122°21'0 0.0
2015-May-14 10:30N 47°34' W 122°21'0 0.0
2015-May-14 09:33N 47°34' W 122°21'0 0.0
2015-May-14 09:30N 47°34' W 122°21'0 0.0
2015-May-14 08:33N 47°34' W 122°21'0 0.0
2015-May-14 08:30N 47°34' W 122°21'0 0.0
2015-May-14 07:33N 47°34' W 122°21'0 0.0
2015-May-14 07:29N 47°34' W 122°21'0 0.0
2015-May-14 06:33N 47°34' W 122°21'0 0.0
2015-May-14 06:29N 47°34' W 122°21'0 0.0
2015-May-14 06:14N 47°34' W 122°21'0 0.0
2015-May-14 05:33N 47°34' W 122°21'1 0.9
2015-May-14 04:34N 47°35' W 122°22'0 4.3
2015-May-14 04:33N 47°35' W 122°22'3 3.4
2015-May-14 03:34N 47°34' W 122°26'0 4.3
2015-May-14 03:33N 47°34' W 122°26'5 4.8
2015-May-14 02:33N 47°30' W 122°30'6 6.1
2015-May-14 01:33N 47°24' W 122°32'9 8.3
2015-May-14 00:30N 47°15' W 122°34'15 0.8
2015-May-13 06:22N 47°12' W 122°56'6 6.8
2015-May-13 05:28N 47°10' W 122°47'7 7.9
2015-May-13 04:33N 47°13' W 122°37'10 9.7
2015-May-13 03:33N 47°22' W 122°32'  

Dump ship's entire track history